Time;durP1;ratioP1;P1;durP2;ratioP2;P2;SDS_P1;SDS_P2;PMS_P1;PMS_P2;Temp;Humidity;BMP_temperature;BMP_pressure;BME280_temperature;BME280_humidity;BME280_pressure;Samples;Min_cycle;Max_cycle;Signal;HPM_P1;HPM_P2
2023/09/15 00:00:23;;;;;;;0.20;0.20;;;;;;;16.43;92.29;100322.75;5055132;28;20035;-60
2023/09/15 00:02:49;;;;;;;0.20;0.20;;;;;;;16.38;92.71;100319.41;5070481;28;20043;-60
2023/09/15 00:05:15;;;;;;;0.20;0.20;;;;;;;16.31;92.97;100320.72;5056972;28;20428;-60
2023/09/15 00:07:40;;;;;;;0.10;0.10;;;;;;;16.26;93.17;100320.91;5050591;28;20032;-60
2023/09/15 00:10:07;;;;;;;0.20;0.20;;;;;;;16.25;92.88;100327.25;5046923;28;20496;-60
2023/09/15 00:12:37;;;;;;;0.30;0.30;;;;;;;16.24;93.82;100316.59;5039151;28;20029;-60
2023/09/15 00:15:08;;;;;;;0.20;0.20;;;;;;;16.19;93.67;100321.31;5039410;28;20896;-60
2023/09/15 00:17:35;;;;;;;0.20;0.20;;;;;;;16.15;94.41;100323.28;5031178;28;20480;-60
2023/09/15 00:22:55;;;;;;;0.30;0.30;;;;;;;16.15;94.92;100322.41;5049832;28;20053;-60
2023/09/15 00:25:29;;;;;;;0.20;0.20;;;;;;;16.12;94.80;100323.44;5049324;28;20420;-60
2023/09/15 00:27:56;;;;;;;;;;;;;;;16.10;95.19;100319.09;5047866;28;20041;-60
2023/09/15 00:30:23;;;;;;;0.20;0.20;;;;;;;16.05;95.03;100315.75;5047598;28;19943;-60
2023/09/15 00:32:49;;;;;;;0.20;0.20;;;;;;;15.99;95.45;100311.59;5044050;28;20210;-60
2023/09/15 00:35:16;;;;;;;0.20;0.20;;;;;;;15.96;96.31;100311.75;5044737;28;20048;-60
2023/09/15 00:37:43;;;;;;;0.30;0.30;;;;;;;15.92;95.70;100314.63;5046724;28;20032;-60
2023/09/15 00:40:10;;;;;;;0.20;0.20;;;;;;;15.90;96.61;100316.56;5046867;28;20033;-60
2023/09/15 00:42:36;;;;;;;0.25;0.25;;;;;;;15.85;96.50;100313.22;5046446;28;20029;-60
2023/09/15 00:45:05;;;;;;;0.30;0.30;;;;;;;15.81;97.14;100310.66;5047026;28;20127;-60
2023/09/15 00:47:33;;;;;;;0.20;0.20;;;;;;;15.79;96.92;100304.53;5046342;28;20511;-59
2023/09/15 00:50:00;;;;;;;0.28;0.28;;;;;;;15.71;97.22;100298.69;5041952;28;20029;-60
2023/09/15 00:52:26;;;;;;;0.20;0.20;;;;;;;15.70;97.37;100293.38;5047652;28;20025;-60
2023/09/15 00:54:53;;;;;;;0.22;0.22;;;;;;;15.72;96.89;100295.03;5046267;28;20329;-60
2023/09/15 00:57:19;;;;;;;0.20;0.20;;;;;;;15.70;97.23;100298.72;5038227;28;20051;-60
2023/09/15 00:59:45;;;;;;;0.22;0.22;;;;;;;15.68;97.71;100297.97;5033627;28;20472;-60
2023/09/15 01:02:12;;;;;;;0.20;0.20;;;;;;;15.68;97.26;100298.81;5046000;28;20032;-60
2023/09/15 01:04:39;;;;;;;0.20;0.20;;;;;;;15.63;97.76;100297.31;5047725;28;20576;-59
2023/09/15 01:07:06;;;;;;;0.30;0.30;;;;;;;15.65;97.38;100298.97;5044039;28;20035;-60
2023/09/15 01:09:32;;;;;;;0.20;0.20;;;;;;;15.62;98.12;100291.06;5047264;28;20025;-59
2023/09/15 01:11:57;;;;;;;0.20;0.20;;;;;;;15.57;97.59;100294.91;5043897;28;20391;-60
2023/09/15 01:14:23;;;;;;;0.30;0.30;;;;;;;15.61;97.50;100293.81;5042795;28;20041;-60
2023/09/15 01:17:04;;;;;;;0.22;0.22;;;;;;;15.56;97.89;100290.50;5045117;28;20025;-60
2023/09/15 01:19:55;;;;;;;0.30;0.30;;;;;;;15.53;98.29;100286.13;5043108;28;20075;-60
2023/09/15 01:22:51;;;;;;;0.20;0.20;;;;;;;15.50;97.95;100280.94;5043817;28;20029;-60
2023/09/15 01:25:45;;;;;;;0.20;0.20;;;;;;;15.48;98.48;100282.84;5039192;28;20087;-60
2023/09/15 01:28:29;;;;;;;0.20;0.20;;;;;;;15.42;98.70;100275.06;5044082;28;20025;-60
2023/09/15 01:30:55;;;;;;;0.22;0.22;;;;;;;15.40;98.25;100270.75;5047682;28;20388;-60
2023/09/15 01:33:21;;;;;;;0.30;0.30;;;;;;;15.38;99.51;100268.09;5047457;28;20037;-61
2023/09/15 01:35:47;;;;;;;0.30;0.30;;;;;;;15.39;99.92;100267.19;5047127;28;20036;-60
2023/09/15 01:38:12;;;;;;;0.30;0.30;;;;;;;15.40;100.00;100276.94;5047616;28;20364;-61
2023/09/15 01:40:37;;;;;;;0.28;0.28;;;;;;;15.43;100.00;100273.28;5051225;28;20035;-61
2023/09/15 01:43:03;;;;;;;0.20;0.20;;;;;;;15.49;100.00;100275.66;5042732;28;20032;-60
2023/09/15 01:45:30;;;;;;;0.30;0.30;;;;;;;15.48;100.00;100266.75;5054335;28;20048;-60
2023/09/15 01:47:57;;;;;;;0.30;0.30;;;;;;;15.55;100.00;100278.06;5063057;28;20096;-60
2023/09/15 01:50:23;;;;;;;0.30;0.30;;;;;;;15.54;100.00;100277.16;5053374;28;20416;-60
2023/09/15 01:52:49;;;;;;;0.30;0.30;;;;;;;15.55;100.00;100276.22;5052354;28;20032;-60
2023/09/15 01:55:16;;;;;;;0.20;0.20;;;;;;;15.57;100.00;100277.00;5052472;28;20444;-60
2023/09/15 01:57:41;;;;;;;0.20;0.20;;;;;;;15.58;100.00;100273.38;5053694;28;20033;-60
2023/09/15 02:00:08;;;;;;;0.30;0.30;;;;;;;15.56;100.00;100275.28;5052659;28;20083;-60
2023/09/15 02:02:33;;;;;;;0.30;0.30;;;;;;;15.60;100.00;100268.81;5053634;28;20033;-60
2023/09/15 02:04:59;;;;;;;0.22;0.22;;;;;;;15.61;100.00;100283.09;5046565;28;20075;-60
2023/09/15 02:07:24;;;;;;;0.20;0.20;;;;;;;15.57;100.00;100276.13;5042152;28;20033;-60
2023/09/15 02:09:50;;;;;;;0.30;0.30;;;;;;;15.54;100.00;100266.44;5051135;28;20735;-60
2023/09/15 02:12:15;;;;;;;0.30;0.30;;;;;;;15.59;100.00;100283.19;5053504;28;20484;-60
2023/09/15 02:14:41;;;;;;;0.20;0.20;;;;;;;15.55;100.00;100278.06;5049887;28;20108;-60
2023/09/15 02:17:06;;;;;;;0.30;0.30;;;;;;;15.52;100.00;100278.16;5050843;28;20037;-58
2023/09/15 02:19:33;;;;;;;0.20;0.20;;;;;;;15.51;100.00;100281.81;5050286;28;20037;-59
2023/09/15 02:21:59;;;;;;;0.30;0.30;;;;;;;15.49;100.00;100281.88;5048581;28;20083;-58
2023/09/15 02:24:24;;;;;;;0.20;0.20;;;;;;;15.39;100.00;100269.88;5033691;28;20025;-58
2023/09/15 02:26:49;;;;;;;0.20;0.20;;;;;;;15.46;100.00;100279.34;5048271;28;20109;-58
2023/09/15 02:29:15;;;;;;;0.25;0.25;;;;;;;15.42;100.00;100277.75;5051064;28;20515;-58
2023/09/15 02:31:41;;;;;;;0.30;0.30;;;;;;;15.42;100.00;100279.59;5049387;28;20376;-58
2023/09/15 02:34:07;;;;;;;0.20;0.20;;;;;;;15.41;100.00;100270.66;5050136;28;20392;-57
2023/09/15 02:36:32;;;;;;;0.20;0.20;;;;;;;15.41;100.00;100269.78;5048939;28;20025;-58
2023/09/15 02:38:57;;;;;;;0.30;0.30;;;;;;;15.35;100.00;100265.53;5048453;28;20032;-57
2023/09/15 02:41:23;;;;;;;0.30;0.30;;;;;;;15.32;100.00;100273.75;5049543;28;20509;-58
2023/09/15 02:43:48;;;;;;;0.30;0.30;;;;;;;15.25;100.00;100274.13;5050972;28;20033;-58
2023/09/15 02:46:14;;;;;;;0.30;0.30;;;;;;;15.24;100.00;100273.25;5048914;28;20029;-57
2023/09/15 02:48:41;;;;;;;0.30;0.30;;;;;;;15.17;100.00;100261.06;5049883;28;20048;-58
2023/09/15 02:51:07;;;;;;;0.20;0.20;;;;;;;15.20;100.00;100265.44;5048486;28;20083;-57
2023/09/15 02:53:32;;;;;;;0.20;0.20;;;;;;;15.21;100.00;100261.78;5050012;28;20025;-58
2023/09/15 02:55:59;;;;;;;0.30;0.30;;;;;;;15.22;100.00;100272.44;5050121;28;20070;-58
2023/09/15 02:58:26;;;;;;;0.20;0.20;;;;;;;15.24;100.00;100273.25;5048625;28;20025;-58
2023/09/15 03:00:51;;;;;;;0.30;0.30;;;;;;;15.26;100.00;100267.81;5049122;28;20040;-58
2023/09/15 03:03:17;;;;;;;0.30;0.30;;;;;;;15.23;100.00;100268.84;5048986;28;20408;-58
2023/09/15 03:05:42;;;;;;;0.20;0.20;;;;;;;15.25;100.00;100266.97;5049581;28;20076;-58
2023/09/15 03:08:08;;;;;;;0.20;0.20;;;;;;;15.26;100.00;100268.69;5049555;28;20021;-58
2023/09/15 03:10:36;;;;;;;0.30;0.30;;;;;;;15.29;100.00;100264.97;5044930;28;20447;-58
2023/09/15 03:13:03;;;;;;;0.25;0.25;;;;;;;15.27;100.00;100267.72;5033699;28;20020;-58
2023/09/15 03:15:29;;;;;;;0.30;0.30;;;;;;;15.26;100.00;100266.00;5048583;28;20076;-58
2023/09/15 03:17:55;;;;;;;0.30;0.30;;;;;;;15.23;100.00;100260.78;5048745;28;20404;-58
2023/09/15 03:20:21;;;;;;;0.30;0.30;;;;;;;15.22;100.00;100269.75;5049483;28;20071;-58
2023/09/15 03:22:47;;;;;;;0.30;0.30;;;;;;;15.18;100.00;100254.78;5045555;28;20028;-58
2023/09/15 03:25:16;;;;;;;0.30;0.30;;;;;;;15.18;100.00;100257.47;5047427;28;20040;-60
2023/09/15 03:27:41;;;;;;;0.30;0.30;;;;;;;15.16;100.00;100259.34;5052127;28;20124;-60
2023/09/15 03:30:07;;;;;;;0.30;0.30;;;;;;;15.12;100.00;100255.06;5051883;28;20560;-60
2023/09/15 03:32:33;;;;;;;0.30;0.30;;;;;;;15.08;100.00;100256.16;5050519;28;20029;-60
2023/09/15 03:35:00;;;;;;;0.30;0.30;;;;;;;15.07;100.00;100254.44;5052839;28;20031;-60
2023/09/15 03:37:25;;;;;;;0.20;0.20;;;;;;;15.16;100.00;100253.97;5051854;28;20025;-60
2023/09/15 03:39:51;;;;;;;0.30;0.30;;;;;;;15.12;100.00;100256.88;5052144;28;20029;-60
2023/09/15 03:42:17;;;;;;;0.30;0.30;;;;;;;15.10;100.00;100254.28;5045647;28;20083;-60
2023/09/15 03:44:42;;;;;;;0.22;0.22;;;;;;;15.08;100.00;100252.59;5057307;28;20021;-60
2023/09/15 03:47:08;;;;;;;0.30;0.30;;;;;;;15.11;100.00;100242.59;5065315;28;20031;-60
2023/09/15 03:49:34;;;;;;;0.40;0.40;;;;;;;15.09;100.00;100252.53;5051881;28;20037;-60
2023/09/15 03:52:00;;;;;;;0.30;0.30;;;;;;;15.08;100.00;100248.13;5051224;28;20091;-60
2023/09/15 03:54:26;;;;;;;0.30;0.30;;;;;;;15.05;100.00;100245.59;5051562;28;20025;-60
2023/09/15 03:56:51;;;;;;;0.30;0.30;;;;;;;15.04;100.00;100242.97;5051158;28;20033;-60
2023/09/15 03:59:17;;;;;;;0.30;0.30;;;;;;;15.05;100.00;100244.72;5052179;28;20365;-60
2023/09/15 04:01:42;;;;;;;0.30;0.30;;;;;;;15.03;100.00;100244.78;5049639;28;20078;-60
2023/09/15 04:04:08;;;;;;;0.30;0.30;;;;;;;14.95;100.00;100238.03;5047640;28;20110;-60
2023/09/15 04:06:35;;;;;;;0.30;0.30;;;;;;;14.97;100.00;100244.19;5051072;28;20495;-60
2023/09/15 04:09:04;;;;;;;0.30;0.30;;;;;;;14.95;100.00;100249.63;5050076;28;20077;-60
2023/09/15 04:11:31;;;;;;;0.30;0.30;;;;;;;14.93;100.00;100250.63;5050593;28;20057;-60
2023/09/15 04:13:56;;;;;;;0.30;0.30;;;;;;;14.93;100.00;100242.59;5049670;28;20501;-60
2023/09/15 04:16:22;;;;;;;0.30;0.30;;;;;;;14.93;100.00;100243.47;5051068;28;20046;-60
2023/09/15 04:18:47;;;;;;;0.20;0.20;;;;;;;14.92;100.00;100243.53;5047791;28;20040;-60
2023/09/15 04:21:12;;;;;;;0.30;0.30;;;;;;;14.91;100.00;100244.50;5048211;28;20029;-60
2023/09/15 04:23:38;;;;;;;0.30;0.30;;;;;;;14.85;100.00;100242.09;5051120;28;20033;-60
2023/09/15 04:26:04;;;;;;;0.30;0.30;;;;;;;14.82;100.00;100247.59;5051057;28;20661;-60
2023/09/15 04:28:29;;;;;;;0.30;0.30;;;;;;;14.78;100.00;100246.84;5049938;28;20040;-60
2023/09/15 04:30:54;;;;;;;0.30;0.30;;;;;;;14.77;100.00;100239.78;5051487;28;20032;-60
2023/09/15 04:33:20;;;;;;;0.30;0.30;;;;;;;14.76;100.00;100243.38;5051075;28;20056;-60
2023/09/15 04:35:46;;;;;;;0.30;0.30;;;;;;;14.73;100.00;100248.88;5051114;28;20025;-58
2023/09/15 04:38:11;;;;;;;0.30;0.30;;;;;;;14.72;100.00;100246.25;5039350;28;20387;-58
2023/09/15 04:40:37;;;;;;;0.30;0.30;;;;;;;14.71;100.00;100250.75;5045033;28;20029;-58
2023/09/15 04:43:02;;;;;;;0.25;0.25;;;;;;;14.73;100.00;100253.38;5038967;28;20116;-57
2023/09/15 04:45:28;;;;;;;0.30;0.30;;;;;;;14.66;100.00;100239.41;5029253;28;20503;-58
2023/09/15 04:47:53;;;;;;;0.30;0.30;;;;;;;14.63;100.00;100257.41;5043482;28;20041;-58
2023/09/15 04:50:19;;;;;;;0.30;0.30;;;;;;;14.59;100.00;100256.69;5049562;28;20635;-57
2023/09/15 04:52:44;;;;;;;0.20;0.20;;;;;;;14.57;100.00;100255.88;5046224;28;20112;-58
2023/09/15 04:55:10;;;;;;;0.30;0.30;;;;;;;14.55;100.00;100260.41;5051240;28;20029;-58
2023/09/15 04:57:35;;;;;;;0.30;0.30;;;;;;;14.57;100.00;100258.53;5049618;28;20120;-58
2023/09/15 05:00:11;;;;;;;0.30;0.30;;;;;;;14.57;100.00;100261.22;5048851;28;20155;-57
2023/09/15 05:02:37;;;;;;;0.30;0.30;;;;;;;14.56;100.00;100259.50;5047640;28;20048;-57
2023/09/15 05:05:02;;;;;;;0.30;0.30;;;;;;;14.51;100.00;100258.84;5047970;28;20037;-58
2023/09/15 05:07:27;;;;;;;0.30;0.30;;;;;;;14.50;100.00;100257.94;5046106;28;20552;-57
2023/09/15 05:09:53;;;;;;;0.30;0.30;;;;;;;14.51;100.00;100253.47;5045158;28;20074;-58
2023/09/15 05:12:18;;;;;;;0.30;0.30;;;;;;;14.50;100.00;100257.06;5026704;28;20013;-58
2023/09/15 05:14:44;;;;;;;0.30;0.30;;;;;;;14.50;100.00;100263.31;5029388;28;20033;-58
2023/09/15 05:17:09;;;;;;;0.30;0.30;;;;;;;14.50;100.00;100265.97;5029080;28;20108;-58
2023/09/15 05:19:34;;;;;;;0.30;0.30;;;;;;;14.47;100.00;100260.78;5047559;28;20040;-58
2023/09/15 05:22:00;;;;;;;0.35;0.35;;;;;;;14.52;100.00;100268.59;5047295;28;20571;-58
2023/09/15 05:24:25;;;;;;;0.30;0.30;;;;;;;14.53;100.00;100270.31;5047989;28;20037;-57
2023/09/15 05:26:51;;;;;;;0.30;0.30;;;;;;;14.57;100.00;100274.59;5048917;28;20028;-58
2023/09/15 05:29:16;;;;;;;0.20;0.20;;;;;;;14.61;100.00;100270.88;5049436;28;20078;-57
2023/09/15 05:31:41;;;;;;;0.30;0.30;;;;;;;14.66;100.00;100278.69;5048665;28;20025;-58
2023/09/15 05:34:08;;;;;;;0.22;0.22;;;;;;;14.67;100.00;100275.06;5049048;28;20108;-57
2023/09/15 05:36:33;;;;;;;0.30;0.30;;;;;;;14.70;100.00;100280.28;5051980;28;20104;-58
2023/09/15 05:38:59;;;;;;;0.30;0.30;;;;;;;14.73;100.00;100283.69;5047995;28;20037;-58
2023/09/15 05:41:24;;;;;;;0.30;0.30;;;;;;;14.78;100.00;100283.50;5036473;28;20056;-58
2023/09/15 05:43:50;;;;;;;0.30;0.30;;;;;;;14.83;100.00;100293.03;5045231;28;20224;-58
2023/09/15 05:46:15;;;;;;;0.30;0.30;;;;;;;14.87;100.00;100294.66;5051190;28;20380;-58
2023/09/15 05:48:40;;;;;;;0.30;0.30;;;;;;;14.90;100.00;100297.19;5048446;28;20044;-58
2023/09/15 05:51:07;;;;;;;0.30;0.30;;;;;;;14.98;100.00;100291.47;5049180;28;20025;-58
2023/09/15 05:53:33;;;;;;;0.30;0.30;;;;;;;15.05;100.00;100295.59;5047995;28;20025;-57
2023/09/15 05:55:58;;;;;;;0.30;0.30;;;;;;;15.10;100.00;100291.78;5048874;28;20384;-58
2023/09/15 05:58:24;;;;;;;0.30;0.30;;;;;;;15.22;100.00;100301.06;5047645;28;20039;-57
2023/09/15 06:00:57;;;;;;;0.32;0.32;;;;;;;15.31;100.00;100300.63;5048761;28;20548;-57
2023/09/15 06:03:23;;;;;;;0.30;0.30;;;;;;;15.35;100.00;100281.63;5044915;28;20029;-57
2023/09/15 06:05:48;;;;;;;0.30;0.30;;;;;;;15.51;100.00;100288.06;5047553;28;20439;-57
2023/09/15 06:08:14;;;;;;;0.25;0.25;;;;;;;15.62;100.00;100293.75;5039216;28;20033;-57
2023/09/15 06:10:40;;;;;;;0.30;0.30;;;;;;;15.72;100.00;100292.34;5032617;28;20125;-58
2023/09/15 06:13:06;;;;;;;0.30;0.30;;;;;;;15.88;100.00;100294.28;5048117;28;20033;-58
2023/09/15 06:15:34;;;;;;;0.30;0.30;;;;;;;15.97;100.00;100286.66;5043212;28;20032;-58
2023/09/15 06:18:00;;;;;;;0.30;0.30;;;;;;;16.11;100.00;100292.16;5033106;28;20408;-57
2023/09/15 06:20:26;;;;;;;0.22;0.22;;;;;;;16.22;99.92;100291.63;5045346;28;20803;-58
2023/09/15 06:22:52;;;;;;;0.30;0.30;;;;;;;16.33;99.06;100289.25;5034177;28;20473;-58
2023/09/15 06:25:17;;;;;;;0.30;0.30;;;;;;;16.48;98.47;100291.19;5027870;28;20079;-58
2023/09/15 06:27:42;;;;;;;0.22;0.22;;;;;;;16.68;98.12;100285.66;5044782;28;20025;-58
2023/09/15 06:30:08;;;;;;;0.22;0.22;;;;;;;16.94;97.47;100290.47;5050750;28;20376;-58
2023/09/15 06:32:34;;;;;;;0.30;0.30;;;;;;;17.51;98.16;100284.59;5042151;28;20057;-57
2023/09/15 06:34:59;;;;;;;0.20;0.20;;;;;;;18.52;94.47;100272.38;5035062;28;20427;-58
2023/09/15 06:37:24;;;;;;;0.20;0.20;;;;;;;20.33;83.40;100283.03;5037270;28;20044;-58
2023/09/15 06:39:50;;;;;;;0.20;0.20;;;;;;;22.05;72.08;100274.09;5052239;28;20481;-58
2023/09/15 06:42:15;;;;;;;0.20;0.20;;;;;;;23.57;63.79;100271.97;5034401;28;20032;-57
2023/09/15 06:44:41;;;;;;;0.20;0.20;;;;;;;24.74;56.68;100280.97;5051867;28;20029;-57
2023/09/15 06:47:06;;;;;;;0.20;0.20;;;;;;;25.61;52.83;100278.59;5034823;28;20026;-58
2023/09/15 06:49:32;;;;;;;0.20;0.20;;;;;;;26.22;49.69;100273.84;5046656;28;20139;-58
2023/09/15 06:51:58;;;;;;;0.20;0.20;;;;;;;26.67;48.14;100285.91;5052471;28;20023;-57
2023/09/15 06:54:23;;;;;;;0.20;0.20;;;;;;;26.66;47.75;100278.75;5050752;28;20037;-58
2023/09/15 06:56:50;;;;;;;0.20;0.20;;;;;;;26.57;47.54;100287.75;5051932;28;20036;-58
2023/09/15 06:59:16;;;;;;;0.20;0.20;;;;;;;26.42;47.20;100283.78;5036686;28;20031;-58
2023/09/15 07:01:42;;;;;;;0.20;0.20;;;;;;;26.74;47.55;100286.19;5043510;28;20063;-57
2023/09/15 07:04:08;;;;;;;0.10;0.10;;;;;;;27.23;46.22;100288.69;5050046;28;20065;-57
2023/09/15 07:06:34;;;;;;;0.20;0.20;;;;;;;27.56;46.17;100284.56;5049469;28;20037;-57
2023/09/15 07:08:59;;;;;;;0.13;0.13;;;;;;;27.65;45.10;100279.03;5050040;28;20083;-57
2023/09/15 07:11:25;;;;;;;0.10;0.10;;;;;;;26.85;46.16;100283.31;5044283;28;20045;-57
2023/09/15 07:13:50;;;;;;;0.17;0.17;;;;;;;26.74;46.77;100280.72;5046901;28;20060;-57
2023/09/15 07:16:15;;;;;;;0.10;0.10;;;;;;;27.08;46.78;100279.25;5049554;28;20016;-57
2023/09/15 07:18:41;;;;;;;0.10;0.10;;;;;;;27.42;46.45;100277.72;5041139;28;20108;-57
2023/09/15 07:21:06;;;;;;;0.10;0.10;;;;;;;27.73;44.99;100273.66;5051048;28;20031;-58
2023/09/15 07:23:32;;;;;;;0.10;0.10;;;;;;;27.84;44.51;100273.44;5040506;28;20025;-57
2023/09/15 07:25:57;;;;;;;0.15;0.15;;;;;;;27.92;45.13;100270.00;5030842;28;20032;-59
2023/09/15 07:28:23;;;;;;;0.10;0.10;;;;;;;27.95;44.42;100269.69;5033486;28;20508;-58
2023/09/15 07:30:48;;;;;;;0.10;0.10;;;;;;;26.86;46.17;100271.38;5033089;28;20404;-57
2023/09/15 07:33:14;;;;;;;0.10;0.10;;;;;;;26.71;47.15;100275.56;5034098;28;20064;-58
2023/09/15 07:35:39;;;;;;;0.10;0.10;;;;;;;26.88;47.18;100269.38;5034298;28;20126;-58
2023/09/15 07:38:05;;;;;;;0.10;0.10;;;;;;;27.03;47.70;100254.25;5032301;28;20021;-58
2023/09/15 07:40:30;;;;;;;0.10;0.10;;;;;;;27.11;46.71;100257.97;5031016;28;20122;-58
2023/09/15 07:42:56;;;;;;;0.10;0.10;;;;;;;26.46;47.92;100255.16;5030574;28;20028;-58
2023/09/15 07:45:21;;;;;;;0.10;0.10;;;;;;;26.22;49.47;100265.66;5028740;28;20033;-58
2023/09/15 07:47:47;;;;;;;0.10;0.10;;;;;;;26.49;48.48;100256.78;5031175;28;20053;-59
2023/09/15 07:50:13;;;;;;;0.10;0.10;;;;;;;26.66;48.87;100253.31;5029969;28;20460;-59
2023/09/15 07:52:39;;;;;;;0.10;0.10;;;;;;;26.71;47.51;100246.41;5029074;28;20016;-59
2023/09/15 07:55:05;;;;;;;0.10;0.10;;;;;;;26.59;48.28;100257.63;5028317;28;20021;-60
2023/09/15 07:57:32;;;;;;;0.00;0.00;;;;;;;26.24;49.07;100251.88;5026904;28;20025;-60
2023/09/15 07:59:59;;;;;;;0.10;0.10;;;;;;;26.25;49.17;100256.31;5027608;28;20023;-60
2023/09/15 08:02:26;;;;;;;0.10;0.10;;;;;;;26.57;49.25;100245.97;5020537;28;20735;-60
2023/09/15 08:04:52;;;;;;;0.10;0.10;;;;;;;26.07;48.37;100253.44;5038309;28;20497;-60
2023/09/15 08:07:18;;;;;;;0.10;0.10;;;;;;;26.01;49.61;100253.13;5043108;28;20488;-60
2023/09/15 08:09:43;;;;;;;0.00;0.00;;;;;;;26.08;49.71;100255.16;5048038;28;20025;-60
2023/09/15 08:12:09;;;;;;;0.10;0.10;;;;;;;26.31;49.26;100255.78;5034199;28;20036;-60
2023/09/15 08:14:34;;;;;;;0.10;0.10;;;;;;;26.32;49.39;100246.56;5039217;28;20075;-60
2023/09/15 08:16:59;;;;;;;0.10;0.10;;;;;;;26.32;49.19;100241.13;5041172;28;20088;-60
2023/09/15 08:19:26;;;;;;;0.08;0.08;;;;;;;26.52;49.38;100245.56;5048921;28;20899;-60
2023/09/15 08:21:52;;;;;;;0.10;0.10;;;;;;;26.80;49.37;100252.88;5046588;28;20502;-60
2023/09/15 08:24:20;;;;;;;0.10;0.10;;;;;;;26.97;48.03;100246.63;5049928;28;20028;-61
2023/09/15 08:26:45;;;;;;;0.10;0.10;;;;;;;26.93;48.24;100242.50;5040111;28;20060;-61
2023/09/15 08:29:14;;;;;;;0.10;0.10;;;;;;;26.57;48.17;100245.97;5050579;28;20132;-60
2023/09/15 08:31:40;;;;;;;0.05;0.05;;;;;;;26.33;48.90;100243.69;5050649;28;20042;-61
2023/09/15 08:34:05;;;;;;;0.10;0.10;;;;;;;26.25;51.04;100242.69;5035265;28;20029;-60
2023/09/15 08:36:31;;;;;;;0.10;0.10;;;;;;;26.49;49.93;100226.75;5038202;28;20088;-60
2023/09/15 08:38:56;;;;;;;0.05;0.05;;;;;;;26.67;50.56;100233.22;5041695;28;20035;-60
2023/09/15 08:41:29;;;;;;;0.00;0.00;;;;;;;26.97;49.86;100228.38;5043220;28;20380;-60
2023/09/15 08:43:55;;;;;;;0.10;0.10;;;;;;;27.21;49.23;100236.06;5040491;28;20123;-61
2023/09/15 08:46:22;;;;;;;0.10;0.10;;;;;;;27.37;48.45;100224.50;5040067;28;20145;-61
2023/09/15 08:48:51;;;;;;;0.00;0.00;;;;;;;27.73;48.22;100229.06;5040444;28;20013;-61
2023/09/15 08:51:18;;;;;;;0.00;0.00;;;;;;;28.10;47.54;100229.84;5048703;28;20072;-61
2023/09/15 08:53:44;;;;;;;0.10;0.10;;;;;;;28.52;46.23;100225.47;5037558;28;20061;-60
2023/09/15 08:56:09;;;;;;;0.00;0.00;;;;;;;28.79;45.27;100235.41;5041521;28;20143;-61
2023/09/15 08:58:35;;;;;;;0.00;0.00;;;;;;;29.14;44.09;100227.97;5034286;28;20044;-61
2023/09/15 09:01:01;;;;;;;0.00;0.00;;;;;;;29.52;43.60;100232.13;5036169;28;20040;-61
2023/09/15 09:03:27;;;;;;;0.00;0.00;;;;;;;29.61;43.09;100236.59;5050390;28;20426;-61
2023/09/15 09:05:55;;;;;;;0.00;0.00;;;;;;;29.35;42.93;100230.31;5033622;28;20038;-61
2023/09/15 09:08:23;;;;;;;0.00;0.00;;;;;;;29.01;44.06;100234.91;5029783;28;20029;-61
2023/09/15 09:10:49;;;;;;;0.00;0.00;;;;;;;29.10;44.07;100233.94;5039617;28;20503;-61
2023/09/15 09:13:15;;;;;;;0.00;0.00;;;;;;;29.04;44.84;100237.31;5029826;28;20072;-61
2023/09/15 09:15:42;;;;;;;0.00;0.00;;;;;;;29.09;44.81;100233.09;5032978;28;20025;-61
2023/09/15 09:18:18;;;;;;;0.00;0.00;;;;;;;29.27;44.21;100238.50;5044732;28;20040;-61
2023/09/15 09:20:46;;;;;;;0.00;0.00;;;;;;;29.04;43.39;100238.19;5028958;28;20476;-61
2023/09/15 09:23:12;;;;;;;0.00;0.00;;;;;;;28.41;45.40;100229.28;5029384;28;20033;-61
2023/09/15 09:25:39;;;;;;;0.00;0.00;;;;;;;28.67;45.90;100233.94;5038171;28;20495;-62
2023/09/15 09:28:05;;;;;;;0.00;0.00;;;;;;;28.97;44.07;100222.53;5037833;28;20035;-62
2023/09/15 09:30:31;;;;;;;0.00;0.00;;;;;;;29.08;45.68;100233.25;5047712;28;20047;-61
2023/09/15 09:32:57;;;;;;;0.00;0.00;;;;;;;29.44;44.25;100223.88;5031586;28;20481;-62
2023/09/15 09:35:23;;;;;;;0.00;0.00;;;;;;;29.40;43.13;100227.94;5029034;28;20747;-62
2023/09/15 09:37:49;;;;;;;0.00;0.00;;;;;;;29.61;44.65;100225.63;5047280;28;20031;-62
2023/09/15 09:40:17;;;;;;;0.00;0.00;;;;;;;29.87;44.04;100207.22;5053380;28;20021;-61
2023/09/15 09:42:43;;;;;;;0.00;0.00;;;;;;;30.24;42.76;100213.16;5033518;28;20063;-61
2023/09/15 09:45:10;;;;;;;0.00;0.00;;;;;;;29.84;43.00;100204.81;5048887;28;20747;-62
2023/09/15 09:47:36;;;;;;;0.00;0.00;;;;;;;29.96;44.34;100206.22;5048808;28;20033;-62
2023/09/15 09:50:06;;;;;;;0.00;0.00;;;;;;;30.10;43.18;100194.56;5046064;28;20033;-62
2023/09/15 09:52:33;;;;;;;0.00;0.00;;;;;;;30.62;43.21;100186.88;5039099;28;20099;-62
2023/09/15 09:55:04;;;;;;;0.00;0.00;;;;;;;31.03;42.13;100180.31;5033985;28;20029;-62
2023/09/15 09:57:30;;;;;;;0.00;0.00;;;;;;;30.95;41.61;100176.72;5028300;28;20640;-62
2023/09/15 09:59:55;;;;;;;0.00;0.00;;;;;;;31.07;41.14;100172.56;5039797;28;20023;-62
2023/09/15 10:02:21;;;;;;;0.00;0.00;;;;;;;30.18;42.87;100163.53;5048772;28;20063;-62
2023/09/15 10:04:46;;;;;;;0.00;0.00;;;;;;;30.35;44.33;100160.66;5044769;28;20033;-62
2023/09/15 10:07:12;;;;;;;0.00;0.00;;;;;;;30.50;42.92;100167.16;5044506;28;20035;-62
2023/09/15 10:09:39;;;;;;;0.00;0.00;;;;;;;30.95;43.26;100163.84;5051904;28;20480;-62
2023/09/15 10:12:05;;;;;;;0.00;0.00;;;;;;;31.15;42.93;100159.66;5049865;28;20052;-62
2023/09/15 10:14:31;;;;;;;0.00;0.00;;;;;;;31.28;41.37;100159.94;5049790;28;20495;-61
2023/09/15 10:16:58;;;;;;;0.00;0.00;;;;;;;31.12;42.57;100160.00;5049685;28;20021;-62
2023/09/15 10:19:24;;;;;;;0.00;0.00;;;;;;;31.41;42.20;100162.16;5042449;28;20478;-62
2023/09/15 10:21:50;;;;;;;0.00;0.00;;;;;;;31.62;42.15;100162.38;5050338;28;20021;-62
2023/09/15 10:24:16;;;;;;;0.00;0.00;;;;;;;31.68;41.62;100161.66;5047594;28;20368;-62
2023/09/15 10:26:42;;;;;;;0.00;0.00;;;;;;;31.95;41.77;100156.53;5040774;28;20034;-62
2023/09/15 10:29:10;;;;;;;0.00;0.00;;;;;;;31.91;41.48;100159.84;5046343;28;20028;-62
2023/09/15 10:31:36;;;;;;;0.00;0.00;;;;;;;31.98;41.18;100152.53;5052321;28;20029;-62
2023/09/15 10:34:04;;;;;;;0.00;0.00;;;;;;;32.28;40.02;100148.84;5052921;28;20055;-62
2023/09/15 10:36:30;;;;;;;0.00;0.00;;;;;;;32.41;40.62;100153.75;5035795;28;20029;-62
2023/09/15 10:38:57;;;;;;;0.00;0.00;;;;;;;32.62;39.71;100143.75;5048627;28;20028;-62
2023/09/15 10:41:29;;;;;;;0.00;0.00;;;;;;;32.77;39.24;100130.84;5037959;28;20029;-62
2023/09/15 10:43:55;;;;;;;0.00;0.00;;;;;;;32.78;40.17;100135.31;5032316;28;20037;-62
2023/09/15 10:46:21;;;;;;;0.00;0.00;;;;;;;32.72;39.95;100129.72;5036739;28;20039;-62
2023/09/15 10:48:48;;;;;;;0.00;0.00;;;;;;;32.75;40.15;100135.66;5050721;28;20110;-61
2023/09/15 10:51:18;;;;;;;0.00;0.00;;;;;;;32.61;40.58;100128.25;5040855;28;20396;-61
2023/09/15 10:53:45;;;;;;;0.00;0.00;;;;;;;32.42;41.01;100130.69;5049845;28;20025;-62
2023/09/15 10:56:12;;;;;;;0.00;0.00;;;;;;;32.63;41.22;100119.81;5048956;28;20031;-62
2023/09/15 10:58:38;;;;;;;0.00;0.00;;;;;;;32.72;40.15;100121.44;5050705;28;20041;-62
2023/09/15 11:01:05;;;;;;;0.00;0.00;;;;;;;32.48;41.14;100129.94;5033398;28;20076;-62
2023/09/15 11:03:33;;;;;;;0.00;0.00;;;;;;;32.68;40.46;100120.97;5034446;28;20033;-61
2023/09/15 11:05:58;;;;;;;0.00;0.00;;;;;;;32.77;39.11;100127.25;5051443;28;20033;-62
2023/09/15 11:08:25;;;;;;;0.00;0.00;;;;;;;32.63;40.88;100120.66;5051690;28;20083;-62
2023/09/15 11:10:58;;;;;;;0.00;0.00;;;;;;;32.33;40.85;100113.34;5049418;28;20068;-62
2023/09/15 11:13:24;;;;;;;0.00;0.00;;;;;;;32.19;40.34;100110.56;5047164;28;20476;-61
2023/09/15 11:15:50;;;;;;;0.00;0.00;;;;;;;31.92;41.92;100112.00;5036038;28;20102;-61
2023/09/15 11:18:15;;;;;;;0.00;0.00;;;;;;;31.89;42.81;100104.97;5049631;28;20165;-61
2023/09/15 11:20:41;;;;;;;0.00;0.00;;;;;;;32.34;42.36;100108.72;5050041;28;20114;-61